Time;durP1;ratioP1;P1;durP2;ratioP2;P2;SDS_P1;SDS_P2;PMS_P1;PMS_P2;Temp;Humidity;BMP_temperature;BMP_pressure;BME280_temperature;BME280_humidity;BME280_pressure;Samples;Min_cycle;Max_cycle;Signal;HPM_P1;HPM_P2
2024/01/25 00:00:40;;;;;;;23.50;14.45;;;;;;;4.06;53.69;95509.22;5042867;28;20036;-75
2024/01/25 00:03:05;;;;;;;24.45;13.75;;;;;;;4.02;53.54;95491.34;5045243;28;20058;-75
2024/01/25 00:05:31;;;;;;;19.45;11.75;;;;;;;4.11;53.15;95497.97;5044116;28;20029;-76
2024/01/25 00:07:56;;;;;;;18.35;10.63;;;;;;;4.10;52.72;95488.25;5044632;28;20940;-76
2024/01/25 00:10:21;;;;;;;20.48;9.48;;;;;;;4.11;52.31;95470.00;5043987;28;20414;-74
2024/01/25 00:12:47;;;;;;;14.02;7.90;;;;;;;4.16;51.98;95461.47;5044588;28;20090;-74
2024/01/25 00:15:12;;;;;;;14.23;8.60;;;;;;;4.17;51.65;95444.75;5044769;28;20036;-75
2024/01/25 00:17:38;;;;;;;14.90;8.40;;;;;;;4.21;51.71;95423.00;5042416;28;20056;-75
2024/01/25 00:20:05;;;;;;;12.95;8.65;;;;;;;4.17;51.74;95398.50;5044731;28;20112;-75
2024/01/25 00:22:30;;;;;;;13.48;8.05;;;;;;;4.21;51.60;95398.50;5043869;28;20403;-75
2024/01/25 00:24:55;;;;;;;10.45;7.80;;;;;;;4.14;51.89;95395.78;5043292;28;20510;-75
2024/01/25 00:27:21;;;;;;;14.00;6.75;;;;;;;4.03;52.08;95400.41;5043968;28;20518;-75
2024/01/25 00:29:46;;;;;;;12.43;7.93;;;;;;;3.95;52.12;95415.88;5043166;28;20028;-75
2024/01/25 00:32:12;;;;;;;13.90;8.45;;;;;;;4.08;52.27;95413.63;5044310;28;20476;-75
2024/01/25 00:34:37;;;;;;;15.73;8.55;;;;;;;4.09;52.83;95420.63;5042456;28;20021;-75
2024/01/25 00:37:03;;;;;;;12.50;8.07;;;;;;;4.11;53.06;95423.72;5044605;28;20484;-75
2024/01/25 00:39:29;;;;;;;13.82;8.43;;;;;;;4.11;53.15;95429.19;5044081;28;20067;-76
2024/01/25 00:42:00;;;;;;;12.77;9.13;;;;;;;4.10;53.23;95427.63;5044906;28;20025;-75
2024/01/25 00:44:27;;;;;;;13.23;8.45;;;;;;;4.12;53.21;95420.63;5026080;28;20039;-75
2024/01/25 00:46:53;;;;;;;14.70;8.68;;;;;;;4.15;53.38;95416.38;5044655;28;20110;-75
2024/01/25 00:49:19;;;;;;;14.43;8.20;;;;;;;4.18;53.23;95396.53;5042818;28;20025;-75
2024/01/25 00:51:48;;;;;;;13.25;7.55;;;;;;;4.35;52.55;95398.53;5043964;28;20583;-75
2024/01/25 00:54:17;;;;;;;14.77;7.75;;;;;;;4.40;52.23;95400.09;5043140;28;20082;-75
2024/01/25 00:56:42;;;;;;;13.95;7.25;;;;;;;4.37;51.98;95398.16;5043658;28;20032;-75
2024/01/25 00:59:08;;;;;;;11.57;6.40;;;;;;;4.29;51.84;95397.34;5044229;28;20032;-75
2024/01/25 01:01:34;;;;;;;9.52;5.70;;;;;;;4.41;51.76;95409.81;5043870;28;20047;-75
2024/01/25 01:03:59;;;;;;;9.25;4.78;;;;;;;4.43;51.69;95418.41;5043000;28;20029;-74
2024/01/25 01:06:26;;;;;;;6.90;4.55;;;;;;;4.46;51.65;95420.34;5042734;28;20036;-75
2024/01/25 01:08:52;;;;;;;7.43;4.13;;;;;;;4.47;51.16;95408.28;5042500;28;20159;-74
2024/01/25 01:11:18;;;;;;;7.18;3.90;;;;;;;4.45;51.34;95413.34;5042857;28;20124;-76
2024/01/25 01:13:43;;;;;;;7.95;4.40;;;;;;;4.49;51.34;95404.03;5042107;28;20610;-75
2024/01/25 01:16:09;;;;;;;5.78;3.47;;;;;;;4.44;51.53;95379.13;5042900;28;20029;-74
2024/01/25 01:18:34;;;;;;;7.18;3.38;;;;;;;4.51;51.59;95369.00;5041970;28;20053;-75
2024/01/25 01:20:59;;;;;;;7.55;3.17;;;;;;;4.50;51.18;95348.41;5044623;28;20032;-75
2024/01/25 01:23:25;;;;;;;6.22;2.95;;;;;;;4.55;51.06;95349.97;5047365;28;20066;-76
2024/01/25 01:25:50;;;;;;;4.10;2.25;;;;;;;4.62;50.51;95330.91;5046546;28;20068;-76
2024/01/25 01:28:16;;;;;;;4.95;2.33;;;;;;;4.64;50.35;95338.69;5046343;28;20483;-76
2024/01/25 01:30:41;;;;;;;5.38;2.60;;;;;;;4.66;50.15;95339.88;5046246;28;20491;-76
2024/01/25 01:33:10;;;;;;;4.88;2.20;;;;;;;4.70;50.08;95350.75;5048342;28;20438;-75
2024/01/25 01:35:35;;;;;;;4.05;2.30;;;;;;;4.81;50.04;95348.78;5045910;28;20033;-75
2024/01/25 01:38:01;;;;;;;2.95;2.30;;;;;;;4.80;50.03;95339.06;5047876;28;20071;-75
2024/01/25 01:40:26;;;;;;;6.75;2.10;;;;;;;4.85;50.00;95340.63;5045294;28;20059;-75
2024/01/25 01:42:51;;;;;;;3.35;1.80;;;;;;;4.85;50.20;95338.69;5047906;28;20028;-75
2024/01/25 01:45:17;;;;;;;4.03;2.00;;;;;;;4.96;50.09;95323.09;5047304;28;20458;-75
2024/01/25 01:47:42;;;;;;;3.85;1.90;;;;;;;4.99;49.93;95322.34;5047087;28;20039;-75
2024/01/25 01:50:09;;;;;;;3.95;1.80;;;;;;;4.97;50.16;95321.94;5047309;28;20025;-75
2024/01/25 01:52:34;;;;;;;4.47;2.10;;;;;;;4.98;50.16;95325.44;5046828;28;20033;-75
2024/01/25 01:55:00;;;;;;;2.72;1.92;;;;;;;5.02;49.95;95328.94;5047366;28;20166;-75
2024/01/25 01:57:26;;;;;;;4.25;1.92;;;;;;;5.02;50.38;95318.03;5045073;28;20040;-75
2024/01/25 01:59:52;;;;;;;3.33;1.80;;;;;;;5.05;50.36;95320.00;5046043;28;20479;-75
2024/01/25 02:02:17;;;;;;;3.60;2.15;;;;;;;5.06;50.37;95307.94;5045000;28;20032;-75
2024/01/25 02:04:43;;;;;;;3.72;2.35;;;;;;;5.04;50.81;95300.13;5046957;28;20086;-75
2024/01/25 02:07:09;;;;;;;8.57;2.97;;;;;;;5.09;51.09;95309.06;5047028;28;20357;-75
2024/01/25 02:09:34;;;;;;;4.90;2.90;;;;;;;5.09;50.94;95306.34;5045095;28;20029;-74
2024/01/25 02:12:03;;;;;;;4.88;2.92;;;;;;;5.18;50.74;95312.97;5045909;28;20047;-75
2024/01/25 02:14:30;;;;;;;8.25;3.47;;;;;;;5.16;50.61;95301.69;5045028;28;20029;-75
2024/01/25 02:16:55;;;;;;;7.25;3.50;;;;;;;5.17;50.84;95325.03;5045747;28;20045;-74
2024/01/25 02:19:20;;;;;;;5.32;3.10;;;;;;;5.19;50.89;95324.63;5045822;28;20083;-74
2024/01/25 02:21:46;;;;;;;7.28;3.40;;;;;;;5.22;50.65;95326.59;5046934;28;20108;-74
2024/01/25 02:24:11;;;;;;;5.78;2.88;;;;;;;5.18;50.33;95329.31;5046268;28;20032;-74
2024/01/25 02:26:37;;;;;;;6.60;3.10;;;;;;;5.20;50.47;95326.97;5046588;28;20104;-75
2024/01/25 02:29:04;;;;;;;5.35;3.03;;;;;;;5.13;50.71;95320.75;5045409;28;20037;-75
2024/01/25 02:31:30;;;;;;;4.88;2.80;;;;;;;5.15;50.52;95321.13;5045860;28;20549;-74
2024/01/25 02:33:56;;;;;;;4.55;2.53;;;;;;;5.09;50.85;95319.97;5044856;28;20021;-75
2024/01/25 02:36:24;;;;;;;5.78;3.05;;;;;;;5.00;50.99;95317.66;5044181;28;20029;-74
2024/01/25 02:38:50;;;;;;;4.22;2.40;;;;;;;4.99;51.08;95322.34;5046594;28;20033;-76
2024/01/25 02:41:15;;;;;;;4.88;2.17;;;;;;;4.99;51.00;95319.63;5046184;28;20036;-74
2024/01/25 02:43:41;;;;;;;4.70;2.38;;;;;;;5.02;51.14;95313.38;5046119;28;20119;-75
2024/01/25 02:46:07;;;;;;;2.97;1.85;;;;;;;4.98;51.26;95304.41;5044878;28;20033;-75
2024/01/25 02:48:32;;;;;;;5.65;2.47;;;;;;;4.89;51.38;95293.16;5044342;28;20033;-75
2024/01/25 02:50:58;;;;;;;4.60;2.40;;;;;;;4.90;51.41;95296.66;5046581;28;20040;-75
2024/01/25 02:53:23;;;;;;;4.47;2.22;;;;;;;4.88;51.44;95285.38;5043892;28;20403;-75
2024/01/25 02:55:49;;;;;;;5.50;2.60;;;;;;;4.91;51.90;95290.81;5046518;28;20182;-75
2024/01/25 02:58:14;;;;;;;5.22;2.50;;;;;;;4.95;51.72;95282.63;5045816;28;20028;-75
2024/01/25 03:00:39;;;;;;;3.95;2.10;;;;;;;5.01;51.95;95290.03;5046071;28;20089;-75
2024/01/25 03:03:05;;;;;;;3.05;1.60;;;;;;;5.13;52.68;95288.06;5045784;28;20547;-75
2024/01/25 03:05:30;;;;;;;2.65;1.20;;;;;;;5.31;53.37;95269.69;5044282;28;20082;-76
2024/01/25 03:07:55;;;;;;;1.73;1.25;;;;;;;5.41;53.63;95284.47;5045025;28;20024;-75
2024/01/25 03:10:21;;;;;;;4.03;1.10;;;;;;;5.52;53.80;95277.03;5026955;28;20552;-75
2024/01/25 03:12:46;;;;;;;2.30;1.10;;;;;;;5.64;53.85;95286.72;5046467;28;20497;-75
2024/01/25 03:15:12;;;;;;;2.05;1.48;;;;;;;5.74;53.99;95294.09;5026932;28;20025;-75
2024/01/25 03:17:37;;;;;;;2.22;1.10;;;;;;;5.82;54.30;95277.28;5045858;28;20102;-75
2024/01/25 03:20:03;;;;;;;2.63;1.00;;;;;;;5.90;53.71;95275.28;5044898;28;20044;-76
2024/01/25 03:22:29;;;;;;;1.92;0.90;;;;;;;6.00;53.69;95268.25;5045819;28;20043;-75
2024/01/25 03:24:54;;;;;;;1.70;0.68;;;;;;;6.21;53.61;95281.78;5045852;28;20033;-75
2024/01/25 03:27:20;;;;;;;3.30;1.02;;;;;;;6.17;53.62;95269.31;5045181;28;20590;-76
2024/01/25 03:29:45;;;;;;;3.08;1.20;;;;;;;6.28;53.76;95272.75;5046087;28;20031;-76
2024/01/25 03:32:10;;;;;;;1.90;0.93;;;;;;;6.36;53.58;95290.63;5043334;28;20036;-75
2024/01/25 03:34:36;;;;;;;3.05;1.30;;;;;;;6.37;53.40;95279.31;5045583;28;20021;-75
2024/01/25 03:37:01;;;;;;;2.65;1.33;;;;;;;6.41;53.00;95268.34;5043252;28;20037;-75
2024/01/25 03:39:27;;;;;;;2.83;1.42;;;;;;;6.54;52.63;95261.25;5045333;28;20036;-76
2024/01/25 03:41:52;;;;;;;1.77;0.98;;;;;;;6.46;52.64;95248.81;5045525;28;20052;-76
2024/01/25 03:44:17;;;;;;;2.15;1.15;;;;;;;6.56;52.33;95261.59;5044288;28;20025;-76
2024/01/25 03:46:43;;;;;;;2.20;1.23;;;;;;;6.60;52.13;95275.25;5045243;28;20055;-76
2024/01/25 03:49:08;;;;;;;3.55;1.10;;;;;;;6.63;51.71;95268.97;5044268;28;20033;-76
2024/01/25 03:51:34;;;;;;;2.55;1.38;;;;;;;6.64;51.26;95254.13;5045480;28;20029;-76
2024/01/25 03:53:59;;;;;;;2.30;1.30;;;;;;;6.64;51.30;95256.84;5044452;28;20108;-76
2024/01/25 03:56:26;;;;;;;1.63;1.10;;;;;;;6.58;51.16;95231.94;5045065;28;20032;-76
2024/01/25 03:58:52;;;;;;;3.35;1.60;;;;;;;6.67;51.00;95244.38;5044572;28;20032;-76
2024/01/25 04:01:17;;;;;;;2.70;1.25;;;;;;;6.62;50.72;95220.97;5043139;28;20021;-75
2024/01/25 04:03:42;;;;;;;2.33;1.35;;;;;;;6.67;50.61;95247.88;5043845;28;20025;-76
2024/01/25 04:06:08;;;;;;;2.17;1.48;;;;;;;6.69;50.59;95236.53;5042799;28;20029;-75
2024/01/25 04:08:33;;;;;;;2.20;1.40;;;;;;;6.72;50.67;95239.25;5045705;28;20052;-76
2024/01/25 04:10:59;;;;;;;3.38;1.58;;;;;;;6.64;50.57;95238.50;5044172;28;20028;-75
2024/01/25 04:13:24;;;;;;;2.53;1.63;;;;;;;6.67;50.56;95239.66;5044958;28;20184;-76
2024/01/25 04:15:50;;;;;;;3.50;1.60;;;;;;;6.67;50.40;95238.91;5044372;28;20029;-76
2024/01/25 04:18:16;;;;;;;5.65;2.88;;;;;;;6.62;50.62;95240.09;5044605;28;20574;-76
2024/01/25 04:20:43;;;;;;;6.82;2.78;;;;;;;6.54;50.79;95244.84;5043321;28;20021;-76
2024/01/25 04:23:08;;;;;;;5.43;3.15;;;;;;;6.54;50.87;95247.59;5042998;28;20536;-75
2024/01/25 04:25:34;;;;;;;6.20;3.40;;;;;;;6.50;50.75;95229.69;5045166;28;20112;-75
2024/01/25 04:28:00;;;;;;;6.18;2.83;;;;;;;6.53;50.88;95237.03;5044114;28;20029;-75
2024/01/25 04:30:25;;;;;;;6.18;2.90;;;;;;;6.54;51.01;95252.28;5045396;28;20017;-74
2024/01/25 04:32:50;;;;;;;8.07;2.78;;;;;;;6.45;51.21;95246.50;5046152;28;20060;-75
2024/01/25 04:35:16;;;;;;;6.22;2.97;;;;;;;6.33;51.61;95250.47;5045862;28;20017;-75
2024/01/25 04:37:41;;;;;;;6.43;2.90;;;;;;;6.34;51.63;95260.22;5045961;28;20089;-76
2024/01/25 04:40:08;;;;;;;3.35;2.42;;;;;;;6.28;51.52;95261.81;5046068;28;20033;-75
2024/01/25 04:42:33;;;;;;;3.78;2.33;;;;;;;6.26;51.39;95280.56;5044376;28;20036;-76
2024/01/25 04:44:58;;;;;;;4.80;2.35;;;;;;;6.22;51.11;95272.41;5044860;28;20415;-78
2024/01/25 04:47:24;;;;;;;3.78;2.20;;;;;;;6.05;51.59;95278.75;5044985;28;20036;-77
2024/01/25 04:49:49;;;;;;;5.10;2.60;;;;;;;6.03;51.56;95281.88;5043933;28;20029;-77
2024/01/25 04:52:15;;;;;;;4.75;1.95;;;;;;;5.93;51.78;95279.97;5044473;28;20412;-77
2024/01/25 04:54:40;;;;;;;4.65;2.05;;;;;;;5.87;51.66;95270.63;5043708;28;20028;-77
2024/01/25 04:57:06;;;;;;;6.20;2.20;;;;;;;5.92;51.47;95269.47;5046907;28;20439;-76
2024/01/25 04:59:35;;;;;;;3.40;1.90;;;;;;;5.92;51.37;95277.66;5048482;28;20070;-76
2024/01/25 05:02:01;;;;;;;5.13;2.17;;;;;;;5.86;51.56;95269.09;5048006;28;20041;-77
2024/01/25 05:04:29;;;;;;;5.57;2.30;;;;;;;5.84;51.61;95293.25;5048006;28;20140;-76
2024/01/25 05:06:54;;;;;;;4.50;2.40;;;;;;;5.78;51.78;95283.91;5046102;28;20093;-77
2024/01/25 05:09:20;;;;;;;4.38;2.50;;;;;;;5.72;51.91;95293.69;5048565;28;20021;-76
2024/01/25 05:11:46;;;;;;;3.75;2.35;;;;;;;5.70;51.96;95298.78;5046243;28;20013;-76
2024/01/25 05:14:11;;;;;;;3.83;2.20;;;;;;;5.67;51.87;95305.00;5048471;28;20036;-76
2024/01/25 05:16:37;;;;;;;3.95;2.42;;;;;;;5.71;51.54;95312.00;5048020;28;20482;-76
2024/01/25 05:19:02;;;;;;;5.32;2.53;;;;;;;5.76;51.51;95313.56;5047781;28;20032;-76
2024/01/25 05:21:27;;;;;;;5.22;2.38;;;;;;;5.81;51.01;95332.25;5030046;28;20114;-76
2024/01/25 05:23:53;;;;;;;4.88;2.10;;;;;;;5.77;51.19;95334.97;5047591;28;20100;-76
2024/01/25 05:26:18;;;;;;;6.70;2.35;;;;;;;5.75;51.25;95333.84;5048279;28;20033;-76
2024/01/25 05:28:44;;;;;;;3.65;2.15;;;;;;;5.78;51.40;95328.34;5029082;28;20505;-75
2024/01/25 05:31:12;;;;;;;4.10;2.30;;;;;;;5.77;51.34;95334.19;5046445;28;20040;-77
2024/01/25 05:33:41;;;;;;;4.78;2.35;;;;;;;5.71;51.61;95322.94;5045890;28;20048;-77
2024/01/25 05:36:09;;;;;;;4.18;2.30;;;;;;;5.84;51.40;95336.91;5047676;28;20116;-77
2024/01/25 05:38:34;;;;;;;4.35;2.28;;;;;;;5.85;51.37;95330.28;5046218;28;20530;-78
2024/01/25 05:41:00;;;;;;;3.25;1.75;;;;;;;5.88;51.25;95334.94;5046391;28;20060;-77
2024/01/25 05:43:25;;;;;;;3.42;1.77;;;;;;;5.90;51.15;95335.31;5045796;28;20123;-77
2024/01/25 05:45:51;;;;;;;5.10;1.90;;;;;;;5.83;51.13;95343.53;5046146;28;20037;-77
2024/01/25 05:48:16;;;;;;;3.75;1.88;;;;;;;5.91;51.11;95339.66;5047019;28;20028;-76
2024/01/25 05:50:41;;;;;;;4.57;1.88;;;;;;;5.94;50.98;95330.66;5044773;28;20070;-77
2024/01/25 05:53:07;;;;;;;5.03;2.20;;;;;;;6.02;51.04;95342.31;5047182;28;20079;-77
2024/01/25 05:55:32;;;;;;;4.32;2.00;;;;;;;6.00;51.21;95341.94;5047408;28;20114;-78
2024/01/25 05:57:58;;;;;;;6.80;2.58;;;;;;;5.97;51.28;95348.97;5047032;28;20478;-78
2024/01/25 06:00:23;;;;;;;5.22;2.30;;;;;;;5.86;51.51;95350.94;5047479;28;20064;-77
2024/01/25 06:02:48;;;;;;;5.82;2.40;;;;;;;5.79;51.66;95353.66;5046581;28;20037;-77
2024/01/25 06:05:14;;;;;;;7.07;2.33;;;;;;;5.84;51.62;95353.25;5046086;28;20100;-77
2024/01/25 06:07:40;;;;;;;5.60;2.40;;;;;;;5.87;51.74;95347.03;5044002;28;20055;-77
2024/01/25 06:10:06;;;;;;;4.70;2.22;;;;;;;5.88;51.85;95361.44;5047538;28;20476;-78
2024/01/25 06:12:31;;;;;;;5.25;2.40;;;;;;;5.90;51.72;95354.41;5046346;28;20545;-78
2024/01/25 06:14:57;;;;;;;5.97;2.72;;;;;;;5.86;51.70;95351.72;5047046;28;20017;-78
2024/01/25 06:17:22;;;;;;;6.72;2.92;;;;;;;5.90;51.64;95354.41;5046577;28;20447;-77
2024/01/25 06:19:47;;;;;;;4.63;1.92;;;;;;;5.92;51.59;95364.97;5046592;28;20036;-76
2024/01/25 06:22:13;;;;;;;4.70;2.63;;;;;;;5.83;51.49;95355.22;5045709;28;20037;-79
2024/01/25 06:24:38;;;;;;;5.50;2.40;;;;;;;5.95;51.72;95372.34;5046210;28;20029;-78
2024/01/25 06:27:04;;;;;;;4.05;2.47;;;;;;;5.98;51.77;95366.13;5047154;28;20028;-78
2024/01/25 06:29:29;;;;;;;5.68;2.53;;;;;;;5.97;51.93;95362.63;5045926;28;20021;-77
2024/01/25 06:31:55;;;;;;;4.93;2.30;;;;;;;5.96;52.00;95371.19;5045545;28;20556;-76
2024/01/25 06:34:20;;;;;;;4.80;2.58;;;;;;;6.01;52.10;95377.00;5046036;28;20456;-77
2024/01/25 06:36:46;;;;;;;4.75;2.28;;;;;;;6.09;51.86;95397.66;5046410;28;20036;-77
2024/01/25 06:39:12;;;;;;;5.50;2.45;;;;;;;6.06;51.85;95392.97;5047022;28;20033;-79
2024/01/25 06:41:37;;;;;;;6.97;2.38;;;;;;;6.10;51.98;95382.81;5046092;28;20029;-79
2024/01/25 06:44:03;;;;;;;4.38;2.50;;;;;;;6.06;51.56;95381.28;5046952;28;20029;-79
2024/01/25 06:46:28;;;;;;;4.68;2.33;;;;;;;6.06;51.66;95392.97;5045479;28;20029;-77
2024/01/25 06:48:54;;;;;;;4.97;2.55;;;;;;;6.17;51.26;95394.88;5045304;28;20534;-78
2024/01/25 06:51:19;;;;;;;3.88;2.10;;;;;;;6.22;51.27;95395.25;5044261;28;20032;-76
2024/01/25 06:53:45;;;;;;;5.35;2.92;;;;;;;6.18;51.10;95378.09;5046581;28;20035;-77
2024/01/25 06:56:10;;;;;;;5.03;2.78;;;;;;;6.37;50.89;95382.31;5046389;28;20603;-77
2024/01/25 06:58:36;;;;;;;5.28;2.78;;;;;;;6.37;50.78;95396.75;5044162;28;20075;-77
2024/01/25 07:01:01;;;;;;;6.20;2.75;;;;;;;6.35;50.91;95406.50;5046593;28;20491;-78
2024/01/25 07:03:27;;;;;;;5.35;2.35;;;;;;;6.38;51.02;95398.28;5044007;28;20025;-77
2024/01/25 07:05:52;;;;;;;4.18;2.72;;;;;;;6.43;51.08;95399.06;5045186;28;20474;-77
2024/01/25 07:08:18;;;;;;;5.47;2.58;;;;;;;6.57;50.48;95397.00;5043927;28;20017;-78
2024/01/25 07:10:44;;;;;;;6.32;2.72;;;;;;;6.57;50.32;95396.25;5028391;28;20032;-76
2024/01/25 07:13:10;;;;;;;15.32;3.75;;;;;;;6.64;50.32;95391.50;5044467;28;20033;-77
2024/01/25 07:15:35;;;;;;;8.02;3.08;;;;;;;6.67;50.13;95378.22;5045549;28;20047;-78
2024/01/25 07:18:01;;;;;;;6.25;2.63;;;;;;;6.63;50.29;95370.81;5046165;28;20048;-78
2024/01/25 07:20:26;;;;;;;5.05;2.40;;;;;;;6.64;50.29;95366.13;5044946;28;20056;-77
2024/01/25 07:22:51;;;;;;;5.82;2.20;;;;;;;6.75;49.96;95377.00;5046625;28;20100;-78
2024/01/25 07:25:17;;;;;;;3.30;1.85;;;;;;;6.64;50.17;95368.88;5045075;28;20432;-77
2024/01/25 07:27:46;;;;;;;5.72;2.38;;;;;;;6.71;50.15;95366.09;5045990;28;20219;-78
2024/01/25 07:30:12;;;;;;;4.68;1.92;;;;;;;6.68;50.00;95345.03;5045080;28;20462;-78
2024/01/25 07:32:41;;;;;;;6.63;2.25;;;;;;;6.71;49.96;95370.75;5043866;28;20550;-78
2024/01/25 07:35:06;;;;;;;3.97;1.85;;;;;;;6.68;49.86;95355.97;5044272;28;20044;-77
2024/01/25 07:37:32;;;;;;;6.82;2.30;;;;;;;6.61;50.54;95343.13;5043637;28;20029;-77
2024/01/25 07:39:57;;;;;;;6.65;2.15;;;;;;;6.69;50.24;95340.34;5044250;28;20510;-77
2024/01/25 07:42:23;;;;;;;6.32;1.90;;;;;;;6.74;50.13;95337.19;5044719;28;20063;-76
2024/01/25 07:44:48;;;;;;;2.90;1.30;;;;;;;6.80;49.62;95343.78;5045828;28;20104;-77
2024/01/25 07:47:14;;;;;;;6.60;2.38;;;;;;;6.78;49.85;95355.13;5044485;28;20439;-77
2024/01/25 07:49:42;;;;;;;7.53;2.55;;;;;;;6.78;49.51;95360.59;5045439;28;20376;-80
2024/01/25 07:52:08;;;;;;;7.95;2.42;;;;;;;6.91;49.69;95371.81;5044987;28;20033;-79
2024/01/25 07:54:33;;;;;;;6.60;2.90;;;;;;;7.10;49.20;95382.19;5044896;28;20028;-79
2024/01/25 07:56:59;;;;;;;8.73;3.22;;;;;;;7.27;48.64;95374.22;5045543;28;20033;-78
2024/01/25 07:59:24;;;;;;;6.13;3.00;;;;;;;7.56;47.90;95385.69;5044511;28;20395;-78
2024/01/25 08:01:49;;;;;;;6.22;2.70;;;;;;;7.56;47.51;95391.91;5045585;28;20048;-77
2024/01/25 08:04:15;;;;;;;5.55;2.60;;;;;;;7.47;47.62;95393.59;5044461;28;20254;-78
2024/01/25 08:06:40;;;;;;;6.10;2.60;;;;;;;7.52;47.48;95391.19;5045440;28;20075;-79
2024/01/25 08:09:05;;;;;;;6.25;2.72;;;;;;;7.57;47.57;95395.44;5044682;28;20100;-76
2024/01/25 08:11:31;;;;;;;9.23;3.03;;;;;;;7.55;47.37;95387.63;5044908;28;20032;-77
2024/01/25 08:13:57;;;;;;;7.82;2.30;;;;;;;7.64;47.20;95401.63;5045413;28;20112;-79
2024/01/25 08:16:22;;;;;;;6.25;2.45;;;;;;;7.72;46.90;95399.59;5043994;28;20032;-83
2024/01/25 08:18:48;;;;;;;4.82;2.20;;;;;;;7.79;46.94;95404.22;5045395;28;20021;-80
2024/01/25 08:21:14;;;;;;;6.80;2.88;;;;;;;7.78;46.66;95408.13;5043994;28;20411;-80
2024/01/25 08:23:39;;;;;;;5.78;2.60;;;;;;;7.87;46.61;95413.91;5044662;28;20100;-80
2024/01/25 08:26:05;;;;;;;6.97;2.35;;;;;;;7.95;45.84;95404.44;5044243;28;20020;-82
2024/01/25 08:28:31;;;;;;;8.38;1.83;;;;;;;8.01;45.67;95405.53;5045091;28;20112;-88
2024/01/25 08:30:57;;;;;;;3.88;1.92;;;;;;;8.05;45.78;95402.75;5044306;28;20108;-83
2024/01/25 08:33:24;;;;;;;9.25;2.78;;;;;;;8.09;45.33;95396.06;5042773;28;20043;-76
2024/01/25 08:35:49;;;;;;;6.55;2.97;;;;;;;8.15;45.51;95401.88;5044964;28;20021;-76
2024/01/25 08:38:15;;;;;;;5.25;2.42;;;;;;;8.17;45.24;95396.75;5044259;28;20024;-78
2024/01/25 08:40:40;;;;;;;6.35;2.53;;;;;;;8.15;45.16;95394.41;5044604;28;20407;-79
2024/01/25 08:43:05;;;;;;;5.80;2.97;;;;;;;8.23;45.30;95404.09;5043585;28;20028;-77
2024/01/25 08:45:31;;;;;;;7.35;2.50;;;;;;;8.28;44.81;95404.84;5044322;28;20029;-78
2024/01/25 08:47:57;;;;;;;5.40;2.70;;;;;;;8.25;44.82;95406.41;5044206;28;20100;-79
2024/01/25 08:50:22;;;;;;;12.15;6.20;;;;;;;8.23;44.46;95406.06;5043920;28;20075;-78
2024/01/25 08:52:47;;;;;;;7.32;2.70;;;;;;;8.22;44.62;95402.53;5045099;28;20100;-79
2024/01/25 08:55:13;;;;;;;6.13;2.20;;;;;;;8.32;44.44;95408.31;5043758;28;20541;-78
2024/01/25 08:57:40;;;;;;;8.88;2.63;;;;;;;8.46;44.24;95422.63;5044338;28;20027;-78
2024/01/25 09:00:12;;;;;;;6.78;2.63;;;;;;;8.63;44.02;95414.59;5043487;28;20037;-79
2024/01/25 09:02:38;;;;;;;9.80;2.58;;;;;;;8.71;43.73;95419.53;5044444;28;20100;-79
2024/01/25 09:05:05;;;;;;;5.80;2.00;;;;;;;8.69;43.81;95416.44;5043847;28;20104;-77
2024/01/25 09:07:30;;;;;;;3.25;1.80;;;;;;;8.72;43.75;95423.84;5044560;28;20021;-78
2024/01/25 09:09:56;;;;;;;5.47;2.75;;;;;;;8.71;43.85;95416.78;5044633;28;20082;-78
2024/01/25 09:12:21;;;;;;;8.82;3.25;;;;;;;8.66;43.88;95417.28;5043680;28;20373;-78
2024/01/25 09:14:46;;;;;;;5.38;2.63;;;;;;;8.69;43.71;95416.44;5044864;28;20029;-78
2024/01/25 09:17:13;;;;;;;7.88;3.05;;;;;;;8.52;44.16;95418.22;5043711;28;20554;-79
2024/01/25 09:19:39;;;;;;;6.72;2.22;;;;;;;8.49;44.36;95410.84;5044417;28;20044;-78
2024/01/25 09:22:06;;;;;;;8.25;2.90;;;;;;;8.53;44.19;95410.78;5043615;28;20044;-78
2024/01/25 09:24:33;;;;;;;7.20;2.92;;;;;;;8.49;44.15;95413.59;5043961;28;20414;-78
2024/01/25 09:26:59;;;;;;;9.15;3.58;;;;;;;8.50;44.65;95411.63;5044307;28;20184;-78
2024/01/25 09:29:25;;;;;;;8.73;3.40;;;;;;;8.63;44.16;95406.34;5043583;28;20495;-78
2024/01/25 09:31:50;;;;;;;8.63;3.08;;;;;;;8.76;44.07;95391.66;5044858;28;20092;-78
2024/01/25 09:34:15;;;;;;;10.32;2.63;;;;;;;8.98;43.81;95389.38;5043456;28;20523;-78
2024/01/25 09:36:41;;;;;;;8.65;2.92;;;;;;;9.16;43.40;95394.59;5044570;28;20033;-79
2024/01/25 09:39:06;;;;;;;6.45;3.33;;;;;;;9.01;43.66;95379.56;5044899;28;20450;-78
2024/01/25 09:41:31;;;;;;;5.35;3.08;;;;;;;9.00;43.57;95381.53;5049041;28;20436;-78
2024/01/25 09:43:57;;;;;;;8.48;3.20;;;;;;;8.96;43.78;95369.06;5049462;28;20067;-79
2024/01/25 09:46:23;;;;;;;5.97;3.00;;;;;;;9.11;43.58;95375.84;5050635;28;20036;-79
2024/01/25 09:48:49;;;;;;;5.75;2.97;;;;;;;9.11;43.53;95369.59;5052556;28;20033;-79
2024/01/25 09:51:14;;;;;;;4.97;2.30;;;;;;;9.13;43.20;95357.03;5048440;28;20036;-79
2024/01/25 09:53:41;;;;;;;11.05;2.78;;;;;;;9.12;43.39;95362.91;5048914;28;20025;-80
2024/01/25 09:56:09;;;;;;;10.55;2.53;;;;;;;9.03;43.65;95356.00;5048213;28;20025;-79
2024/01/25 09:58:42;;;;;;;5.78;2.50;;;;;;;9.12;43.28;95360.16;5048022;28;20021;-78
2024/01/25 10:01:12;;;;;;;4.32;1.75;;;;;;;9.06;43.34;95343.44;5047169;28;20095;-79
2024/01/25 10:03:40;;;;;;;9.30;2.65;;;;;;;8.95;43.75;95346.34;5045680;28;20116;-79
2024/01/25 10:06:06;;;;;;;7.05;3.53;;;;;;;8.89;43.78;95344.47;5046073;28;20035;-78
2024/01/25 10:08:31;;;;;;;10.20;4.25;;;;;;;8.87;44.35;95327.69;5046704;28;20453;-79
2024/01/25 10:10:57;;;;;;;9.90;3.92;;;;;;;8.93;44.17;95321.31;5047668;28;20028;-79
2024/01/25 10:13:22;;;;;;;14.05;5.70;;;;;;;8.98;44.23;95331.78;5046335;28;20104;-78
2024/01/25 10:15:48;;;;;;;12.75;5.75;;;;;;;9.03;44.02;95317.63;5047268;28;20029;-78
2024/01/25 10:18:14;;;;;;;15.73;6.72;;;;;;;9.01;44.45;95321.97;5046220;28;20048;-78
2024/01/25 10:20:42;;;;;;;19.30;9.50;;;;;;;9.10;44.19;95315.94;5045258;28;20474;-78
2024/01/25 10:23:08;;;;;;;17.20;7.65;;;;;;;9.24;44.07;95332.16;5046867;28;20025;-79
2024/01/25 10:25:37;;;;;;;12.82;6.38;;;;;;;9.42;43.54;95323.63;5046122;28;20483;-78
2024/01/25 10:28:06;;;;;;;11.07;5.43;;;;;;;9.40;43.79;95331.47;5047185;28;20028;-81
2024/01/25 10:30:33;;;;;;;9.57;4.22;;;;;;;9.44;43.93;95326.72;5046085;28;20114;-79
2024/01/25 10:32:59;;;;;;;8.65;3.88;;;;;;;9.50;43.97;95330.50;5046920;28;20079;-79
2024/01/25 10:35:25;;;;;;;7.60;3.17;;;;;;;9.55;43.77;95325.31;5045703;28;20021;-79
2024/01/25 10:37:51;;;;;;;9.77;4.00;;;;;;;9.62;43.77;95323.63;5046862;28;20067;-82
2024/01/25 10:40:18;;;;;;;9.77;3.25;;;;;;;9.62;43.38;95324.41;5046289;28;20533;-79
2024/01/25 10:42:44;;;;;;;9.65;3.38;;;;;;;9.64;43.58;95319.28;5046112;28;20033;-77
2024/01/25 10:45:10;;;;;;;6.18;2.55;;;;;;;9.63;43.76;95306.72;5046926;28;20419;-78
2024/01/25 10:47:37;;;;;;;9.63;3.85;;;;;;;9.76;43.50;95304.94;5045770;28;20056;-80
2024/01/25 10:50:03;;;;;;;9.27;4.10;;;;;;;9.76;43.24;95295.91;5047119;28;20044;-80
2024/01/25 10:52:29;;;;;;;8.88;3.30;;;;;;;9.80;43.25;95294.63;5045505;28;20487;-78
2024/01/25 10:54:55;;;;;;;8.38;3.53;;;;;;;9.85;43.29;95290.63;5044560;28;20399;-78
2024/01/25 10:57:20;;;;;;;7.63;4.72;;;;;;;9.79;43.58;95301.31;5045798;28;20028;-79
2024/01/25 10:59:46;;;;;;;7.38;3.40;;;;;;;10.02;43.26;95294.19;5046092;28;20108;-79
2024/01/25 11:02:12;;;;;;;6.43;3.75;;;;;;;10.78;41.83;95285.84;5045183;28;20356;-81
2024/01/25 11:04:37;;;;;;;9.45;3.15;;;;;;;11.38;39.89;95270.56;5045681;28;20037;-79
2024/01/25 11:07:09;;;;;;;9.75;3.55;;;;;;;11.04;40.30;95278.53;5046479;28;20032;-79
2024/01/25 11:09:37;;;;;;;8.32;3.05;;;;;;;10.89;40.45;95267.09;5044974;28;20406;-79
2024/01/25 11:12:11;;;;;;;7.88;4.60;;;;;;;10.79;40.46;95257.94;5045047;28;20380;-78
2024/01/25 11:14:39;;;;;;;20.58;8.35;;;;;;;10.76;40.99;95256.03;5045212;28;20036;-79
2024/01/25 11:17:21;;;;;;;9.23;3.78;;;;;;;10.78;40.61;95250.91;5045631;28;20136;-79
2024/01/25 11:19:48;;;;;;;7.95;2.60;;;;;;;10.81;39.72;95239.03;5046041;28;20116;-80
2024/01/25 11:22:14;;;;;;;5.65;2.35;;;;;;;10.58;39.41;95239.97;5045242;28;20511;-80
2024/01/25 11:24:39;;;;;;;7.22;2.50;;;;;;;10.51;39.61;95228.38;5045777;28;20025;-78
2024/01/25 11:27:05;;;;;;;8.15;2.92;;;;;;;10.48;39.46;95237.47;5044823;28;20025;-78
2024/01/25 11:29:31;;;;;;;6.95;2.53;;;;;;;10.30;39.50;95232.41;5045625;28;20075;-78
2024/01/25 11:31:57;;;;;;;8.10;2.83;;;;;;;10.19;39.75;95248.31;5045273;28;20461;-79